createdAt,value
2019-02-19T00:00:04.060Z,5.00
2019-02-19T00:00:52.606Z,5.77
2019-02-19T00:01:33.213Z,5.67
2019-02-19T00:02:11.462Z,4.97
2019-02-19T00:02:47.614Z,4.67
2019-02-19T00:03:23.663Z,4.33
2019-02-19T00:03:59.832Z,4.50
2019-02-19T00:04:36.086Z,4.93
2019-02-19T00:05:12.105Z,5.27
2019-02-19T00:05:48.124Z,5.43
2019-02-19T00:06:24.294Z,4.60
2019-02-19T00:07:00.323Z,4.90
2019-02-19T00:07:36.539Z,4.87
2019-02-19T00:08:12.648Z,5.80
2019-02-19T00:08:48.649Z,4.97
2019-02-19T00:09:24.849Z,4.70
2019-02-19T00:10:00.859Z,5.20
2019-02-19T00:10:37.578Z,5.17
2019-02-19T00:11:13.538Z,5.30
2019-02-19T00:11:49.581Z,5.77
2019-02-19T00:12:26.164Z,5.40
2019-02-19T00:13:02.394Z,5.70
2019-02-19T00:13:38.409Z,5.00
2019-02-19T00:14:14.657Z,6.00
2019-02-19T00:14:50.768Z,5.30
2019-02-19T00:15:26.846Z,6.13
2019-02-19T00:16:02.920Z,4.93
2019-02-19T00:16:39.158Z,5.83
2019-02-19T00:17:15.375Z,5.40
2019-02-19T00:17:51.641Z,6.60
2019-02-19T00:18:27.975Z,5.30
2019-02-19T00:19:04.200Z,6.20
2019-02-19T00:19:40.386Z,5.87
2019-02-19T00:20:16.535Z,5.50
2019-02-19T00:20:52.607Z,4.80
2019-02-19T00:21:28.572Z,6.33
2019-02-19T00:22:04.648Z,5.77
2019-02-19T00:22:40.633Z,6.60
2019-02-19T00:23:16.781Z,7.37
2019-02-19T00:23:52.896Z,6.00
2019-02-19T00:24:28.831Z,7.40
2019-02-19T00:25:04.944Z,6.63
2019-02-19T00:25:41.213Z,6.40
2019-02-19T00:26:14.651Z,5.93
2019-02-19T00:26:50.844Z,6.67
2019-02-19T00:27:27.123Z,4.90
2019-02-19T00:28:03.234Z,6.00
2019-02-19T00:28:39.171Z,6.13
2019-02-19T00:29:15.171Z,6.90
2019-02-19T00:29:51.320Z,6.97
2019-02-19T00:30:27.552Z,6.67
2019-02-19T00:31:03.775Z,5.63
2019-02-19T00:31:40.020Z,5.97
2019-02-19T00:32:16.019Z,5.40
2019-02-19T00:32:52.559Z,6.40
2019-02-19T00:33:29.092Z,5.50
2019-02-19T00:34:05.667Z,5.77
2019-02-19T00:34:41.768Z,6.13
2019-02-19T00:35:17.848Z,5.40
2019-02-19T00:35:54.090Z,6.50
2019-02-19T00:36:30.539Z,6.07
2019-02-19T00:37:06.705Z,5.97
2019-02-19T00:37:42.930Z,5.83
2019-02-19T00:38:19.163Z,6.10
2019-02-19T00:38:55.122Z,7.30
2019-02-19T00:39:31.276Z,6.57
2019-02-19T00:40:08.130Z,7.33
2019-02-19T00:40:44.533Z,6.50
2019-02-19T00:41:20.756Z,5.97
2019-02-19T00:41:56.851Z,7.93
2019-02-19T00:42:32.958Z,6.40
2019-02-19T00:43:09.010Z,5.67
2019-02-19T00:43:45.236Z,6.20
2019-02-19T00:44:21.440Z,6.60
2019-02-19T00:44:57.555Z,7.47
2019-02-19T00:45:33.736Z,6.77
2019-02-19T00:46:09.806Z,7.37
2019-02-19T00:46:45.954Z,6.23
2019-02-19T00:47:22.031Z,6.73
2019-02-19T00:47:58.002Z,5.73
2019-02-19T00:48:34.006Z,6.27
2019-02-19T00:49:10.073Z,6.17
2019-02-19T00:49:46.284Z,7.73
2019-02-19T00:50:22.398Z,6.10
2019-02-19T00:50:58.473Z,5.93
2019-02-19T00:51:34.724Z,6.27
2019-02-19T00:52:10.849Z,6.97
2019-02-19T00:52:47.172Z,5.83
2019-02-19T00:53:23.483Z,5.47
2019-02-19T00:53:59.742Z,6.67
2019-02-19T00:54:35.833Z,7.30
2019-02-19T00:55:11.985Z,6.30
2019-02-19T00:55:48.170Z,6.50
2019-02-19T00:56:24.412Z,5.80
2019-02-19T00:57:00.641Z,7.10
2019-02-19T00:57:36.701Z,7.17
2019-02-19T00:58:12.849Z,7.20
2019-02-19T00:58:49.049Z,6.43
2019-02-19T00:59:25.331Z,7.50
2019-02-19T01:00:01.520Z,5.90
2019-02-19T01:00:37.624Z,7.03
2019-02-19T01:01:13.797Z,6.93
2019-02-19T01:01:49.977Z,7.63
2019-02-19T01:02:26.200Z,7.27
2019-02-19T01:03:02.375Z,7.30
2019-02-19T01:03:38.610Z,8.27
2019-02-19T01:04:14.845Z,8.50
2019-02-19T01:04:50.844Z,7.83
2019-02-19T01:05:26.916Z,8.53
2019-02-19T01:06:03.002Z,9.43
2019-02-19T01:06:39.262Z,8.60
2019-02-19T01:07:15.590Z,9.67
2019-02-19T01:07:51.799Z,9.93
2019-02-19T01:08:27.810Z,11.10
2019-02-19T01:09:05.055Z,11.10
2019-02-19T01:09:41.111Z,10.33
2019-02-19T01:10:17.213Z,9.93
2019-02-19T01:10:53.385Z,9.33
2019-02-19T01:11:29.558Z,10.07
2019-02-19T01:12:05.613Z,9.87
2019-02-19T01:12:41.794Z,8.50
2019-02-19T01:13:17.889Z,9.50
2019-02-19T01:13:54.095Z,8.83
2019-02-19T01:14:30.370Z,9.97
2019-02-19T01:15:07.336Z,8.93
2019-02-19T01:15:43.466Z,9.07
2019-02-19T01:16:19.737Z,10.30
2019-02-19T01:16:55.940Z,10.80
2019-02-19T01:17:32.051Z,8.53
2019-02-19T01:18:09.181Z,10.30
2019-02-19T01:18:45.307Z,9.50
2019-02-19T01:19:21.515Z,9.23
2019-02-19T01:19:57.700Z,9.60
2019-02-19T01:20:33.754Z,9.90
2019-02-19T01:21:09.822Z,12.53
2019-02-19T01:21:46.008Z,8.47
2019-02-19T01:22:22.160Z,10.33
2019-02-19T01:22:58.188Z,7.17
2019-02-19T01:23:34.289Z,8.70
2019-02-19T01:24:10.455Z,11.47
2019-02-19T01:24:46.680Z,11.57
2019-02-19T01:25:22.833Z,11.10
2019-02-19T01:25:58.964Z,10.73
2019-02-19T01:26:35.236Z,11.97
2019-02-19T01:27:11.380Z,12.30
2019-02-19T01:27:47.570Z,12.10
2019-02-19T01:28:23.772Z,8.97
2019-02-19T01:28:59.746Z,11.37
2019-02-19T01:29:35.780Z,9.60
2019-02-19T01:30:13.216Z,10.60
2019-02-19T01:30:49.347Z,10.97
2019-02-19T01:31:25.381Z,10.70
2019-02-19T01:32:01.496Z,11.40
2019-02-19T01:32:37.823Z,10.40
2019-02-19T01:33:13.966Z,11.80
2019-02-19T01:33:50.078Z,11.17
2019-02-19T01:34:26.234Z,11.83
2019-02-19T01:35:02.357Z,11.77
2019-02-19T01:35:38.544Z,10.73
2019-02-19T01:36:14.601Z,12.63
2019-02-19T01:36:50.647Z,11.10
2019-02-19T01:37:26.742Z,12.63
2019-02-19T01:38:02.963Z,10.90
2019-02-19T01:38:38.999Z,10.40
2019-02-19T01:39:15.166Z,11.77
2019-02-19T01:39:51.417Z,11.53
2019-02-19T01:40:27.540Z,11.40
2019-02-19T01:41:03.816Z,13.13
2019-02-19T01:41:39.874Z,11.43
2019-02-19T01:42:16.047Z,9.87
2019-02-19T01:42:52.256Z,12.20
2019-02-19T01:43:28.404Z,11.50
2019-02-19T01:44:04.562Z,11.17
2019-02-19T01:44:40.857Z,10.37
2019-02-19T01:45:16.992Z,10.90
2019-02-19T01:45:53.128Z,11.50
2019-02-19T01:46:29.275Z,11.90
2019-02-19T01:47:05.452Z,12.67
2019-02-19T01:47:41.609Z,11.23
2019-02-19T01:48:17.671Z,11.03
2019-02-19T01:48:53.789Z,12.43
2019-02-19T01:49:30.148Z,11.80
2019-02-19T01:50:06.870Z,11.03
2019-02-19T01:50:43.162Z,11.17
2019-02-19T01:51:19.234Z,11.10
2019-02-19T01:51:55.385Z,10.60
2019-02-19T01:52:31.402Z,11.07
2019-02-19T01:53:07.561Z,10.30
2019-02-19T01:53:43.906Z,12.23
2019-02-19T01:54:20.061Z,10.80
2019-02-19T01:54:56.207Z,10.77
2019-02-19T01:55:32.485Z,10.40
2019-02-19T01:56:08.637Z,11.23
2019-02-19T01:56:44.783Z,11.27
2019-02-19T01:57:20.779Z,12.20
2019-02-19T01:57:57.006Z,12.63
2019-02-19T01:58:33.272Z,11.83
2019-02-19T01:59:09.442Z,9.77
2019-02-19T01:59:45.466Z,11.90
2019-02-19T02:00:21.639Z,10.90
2019-02-19T02:00:57.672Z,11.10
2019-02-19T02:01:33.837Z,10.37
2019-02-19T02:02:09.777Z,11.47
2019-02-19T02:02:45.845Z,10.10
2019-02-19T02:03:22.086Z,11.37
2019-02-19T02:03:58.264Z,11.13
2019-02-19T02:04:34.435Z,12.53
2019-02-19T02:05:10.650Z,10.20
2019-02-19T02:05:46.797Z,11.10
2019-02-19T02:06:22.784Z,12.00
2019-02-19T02:06:58.891Z,10.23
2019-02-19T02:07:35.004Z,10.87
2019-02-19T02:08:11.206Z,10.50
2019-02-19T02:08:47.369Z,8.87
2019-02-19T02:09:23.622Z,10.43
2019-02-19T02:09:59.735Z,10.63
2019-02-19T02:10:35.969Z,11.13
2019-02-19T02:11:12.142Z,12.37
2019-02-19T02:11:48.353Z,10.73
2019-02-19T02:12:24.532Z,9.87
2019-02-19T02:13:00.682Z,9.50
2019-02-19T02:13:36.857Z,9.23
2019-02-19T02:14:13.132Z,11.70
2019-02-19T02:14:49.325Z,10.13
2019-02-19T02:15:25.592Z,10.63
2019-02-19T02:16:01.658Z,9.90
2019-02-19T02:16:37.881Z,10.00
2019-02-19T02:17:14.069Z,10.10
2019-02-19T02:17:50.257Z,9.70
2019-02-19T02:18:26.322Z,10.37
2019-02-19T02:19:02.389Z,10.03
2019-02-19T02:19:38.653Z,10.43
2019-02-19T02:20:14.790Z,10.10
2019-02-19T02:20:51.032Z,11.10
2019-02-19T02:21:27.089Z,10.20
2019-02-19T02:22:03.049Z,9.20
2019-02-19T02:22:39.137Z,9.40
2019-02-19T02:23:15.156Z,10.13
2019-02-19T02:23:51.220Z,7.73
2019-02-19T02:24:27.195Z,8.87
2019-02-19T02:25:03.282Z,8.80
2019-02-19T02:25:39.375Z,8.60
2019-02-19T02:26:15.351Z,7.60
2019-02-19T02:26:51.480Z,8.60
2019-02-19T02:27:27.497Z,8.83
2019-02-19T02:28:03.957Z,10.67
2019-02-19T02:28:40.133Z,8.20
2019-02-19T02:29:16.217Z,9.63
2019-02-19T02:29:52.353Z,9.80
2019-02-19T02:30:28.555Z,10.60
2019-02-19T02:31:04.604Z,9.57
2019-02-19T02:31:40.657Z,9.73
2019-02-19T02:32:16.756Z,10.50
2019-02-19T02:32:52.874Z,7.53
2019-02-19T02:33:28.929Z,9.10
2019-02-19T02:34:04.986Z,7.63
2019-02-19T02:34:41.252Z,9.27
2019-02-19T02:35:17.513Z,8.80
2019-02-19T02:35:53.741Z,8.13
2019-02-19T02:36:29.737Z,9.60
2019-02-19T02:37:05.826Z,8.80
2019-02-19T02:37:41.965Z,7.00
2019-02-19T02:38:18.007Z,9.47
2019-02-19T02:38:54.208Z,7.70
2019-02-19T02:39:30.208Z,8.77
2019-02-19T02:40:06.423Z,8.10
2019-02-19T02:40:42.552Z,8.83
2019-02-19T02:41:18.670Z,7.17
2019-02-19T02:41:54.862Z,6.73
2019-02-19T02:42:31.018Z,8.10
2019-02-19T02:43:07.180Z,7.70
2019-02-19T02:43:43.275Z,7.30
2019-02-19T02:44:19.399Z,7.70
2019-02-19T02:44:55.580Z,7.83
2019-02-19T02:45:31.886Z,8.40
2019-02-19T02:46:07.955Z,7.97
2019-02-19T02:46:44.014Z,7.70
2019-02-19T02:47:20.158Z,8.20
2019-02-19T02:47:56.431Z,7.70
2019-02-19T02:48:32.504Z,6.80
2019-02-19T02:49:08.699Z,7.43
2019-02-19T02:49:44.912Z,7.40
2019-02-19T02:50:21.004Z,7.47
2019-02-19T02:50:57.036Z,8.30
2019-02-19T02:51:33.091Z,7.33
2019-02-19T02:52:09.173Z,7.37
2019-02-19T02:52:45.390Z,7.17
2019-02-19T02:53:21.566Z,7.30
2019-02-19T02:53:58.023Z,6.50
2019-02-19T02:54:34.317Z,6.53
2019-02-19T02:55:10.584Z,6.30
2019-02-19T02:55:46.735Z,7.53
2019-02-19T02:56:22.768Z,5.97
2019-02-19T02:56:58.869Z,6.80
2019-02-19T02:57:35.086Z,7.87
2019-02-19T02:58:11.084Z,6.23
2019-02-19T02:58:47.291Z,6.33
2019-02-19T02:59:23.538Z,6.50
2019-02-19T02:59:59.606Z,6.53
2019-02-19T03:00:35.617Z,7.20
2019-02-19T03:01:11.835Z,7.10
2019-02-19T03:01:48.048Z,7.60
2019-02-19T03:02:24.449Z,6.27
2019-02-19T03:03:00.516Z,5.67
2019-02-19T03:03:36.524Z,5.80
2019-02-19T03:04:12.675Z,6.60
2019-02-19T03:04:48.728Z,7.67
2019-02-19T03:05:25.376Z,8.27
2019-02-19T03:06:15.300Z,7.27
2019-02-19T03:06:56.024Z,5.70
2019-02-19T03:07:43.686Z,7.07
2019-02-19T03:08:19.889Z,5.93
2019-02-19T03:08:55.988Z,5.60
2019-02-19T03:09:32.107Z,5.93
2019-02-19T03:10:08.381Z,5.20
2019-02-19T03:10:44.605Z,5.07
2019-02-19T03:11:20.624Z,4.67
2019-02-19T03:11:56.699Z,5.97
2019-02-19T03:12:32.795Z,5.73
2019-02-19T03:13:08.955Z,5.60
2019-02-19T03:13:45.080Z,5.80
2019-02-19T03:14:21.423Z,5.07
2019-02-19T03:14:57.636Z,5.13
2019-02-19T03:15:33.959Z,5.23
2019-02-19T03:16:10.139Z,5.63
2019-02-19T03:16:46.336Z,5.30
2019-02-19T03:17:22.454Z,5.13
2019-02-19T03:17:58.732Z,5.47
2019-02-19T03:18:34.962Z,4.60
2019-02-19T03:19:11.131Z,4.20
2019-02-19T03:19:47.271Z,4.50
2019-02-19T03:20:23.422Z,4.73
2019-02-19T03:20:59.767Z,4.97
2019-02-19T03:21:35.847Z,5.03
2019-02-19T03:22:12.070Z,3.97
2019-02-19T03:22:48.165Z,4.20
2019-02-19T03:23:24.259Z,3.97
2019-02-19T03:24:00.384Z,4.20
2019-02-19T03:24:36.692Z,3.30
2019-02-19T03:25:12.887Z,4.30
2019-02-19T03:25:48.946Z,4.27
2019-02-19T03:26:25.145Z,3.50
2019-02-19T03:27:01.279Z,3.57
2019-02-19T03:27:37.456Z,3.17
2019-02-19T03:28:13.671Z,3.60
2019-02-19T03:28:49.930Z,4.07
2019-02-19T03:29:25.930Z,3.50
2019-02-19T03:30:02.241Z,4.40
2019-02-19T03:30:38.405Z,4.23
2019-02-19T03:31:14.477Z,3.90
2019-02-19T03:31:50.673Z,3.97
2019-02-19T03:32:26.873Z,4.20
2019-02-19T03:33:02.858Z,4.47
2019-02-19T03:33:38.989Z,4.67
2019-02-19T03:34:15.156Z,4.20
2019-02-19T03:34:51.243Z,4.20
2019-02-19T03:35:27.520Z,4.40
2019-02-19T03:36:03.657Z,4.10
2019-02-19T03:36:39.668Z,5.33
2019-02-19T03:37:15.860Z,4.23
2019-02-19T03:37:52.035Z,3.80
2019-02-19T03:38:28.029Z,4.03
2019-02-19T03:39:04.965Z,4.70
2019-02-19T03:39:41.113Z,4.50
2019-02-19T03:40:17.238Z,4.30
2019-02-19T03:40:53.273Z,3.50
2019-02-19T03:41:29.639Z,4.63
2019-02-19T03:42:05.669Z,5.07
2019-02-19T03:42:41.926Z,4.50
2019-02-19T03:43:18.192Z,3.70
2019-02-19T03:43:54.315Z,3.83
2019-02-19T03:44:30.445Z,4.00
2019-02-19T03:45:06.746Z,4.60
2019-02-19T03:45:42.898Z,4.63
2019-02-19T03:46:19.069Z,4.43
2019-02-19T03:46:55.116Z,4.50
2019-02-19T03:47:31.175Z,4.27
2019-02-19T03:48:07.419Z,4.20
2019-02-19T03:48:43.642Z,3.47
2019-02-19T03:49:19.938Z,4.13
2019-02-19T03:49:55.869Z,4.53
2019-02-19T03:50:32.066Z,3.90
2019-02-19T03:51:08.131Z,4.70
2019-02-19T03:51:44.387Z,4.50
2019-02-19T03:52:20.529Z,4.10
2019-02-19T03:52:56.560Z,4.43
2019-02-19T03:53:32.542Z,4.30
2019-02-19T03:54:08.598Z,4.77
2019-02-19T03:54:45.054Z,4.83
2019-02-19T03:55:21.138Z,5.80
2019-02-19T03:55:57.219Z,4.70
2019-02-19T03:56:33.365Z,4.00
2019-02-19T03:57:09.535Z,4.37
2019-02-19T03:57:45.681Z,5.40
2019-02-19T03:58:21.698Z,5.47
2019-02-19T03:58:58.221Z,4.60
2019-02-19T03:59:34.499Z,4.50
2019-02-19T04:00:10.878Z,5.70
2019-02-19T04:00:46.943Z,4.73
2019-02-19T04:01:22.991Z,4.83
2019-02-19T04:01:59.277Z,4.63
2019-02-19T04:02:35.300Z,5.00
2019-02-19T04:03:11.410Z,4.40
2019-02-19T04:03:47.560Z,4.27
2019-02-19T04:04:23.561Z,4.17
2019-02-19T04:04:59.523Z,5.27
2019-02-19T04:05:35.756Z,4.20
2019-02-19T04:06:11.913Z,4.10
2019-02-19T04:06:48.049Z,4.60
2019-02-19T04:07:24.004Z,4.63
2019-02-19T04:08:00.118Z,4.33
2019-02-19T04:08:36.285Z,4.07
2019-02-19T04:09:12.434Z,4.67
2019-02-19T04:09:48.532Z,4.60
2019-02-19T04:10:24.735Z,3.80
2019-02-19T04:11:00.975Z,6.10
2019-02-19T04:11:37.217Z,5.40
2019-02-19T04:12:13.476Z,4.87
2019-02-19T04:12:49.765Z,4.60
2019-02-19T04:13:25.887Z,3.97
2019-02-19T04:14:02.102Z,5.20
2019-02-19T04:14:38.193Z,4.97
2019-02-19T04:15:14.420Z,4.63
2019-02-19T04:15:50.582Z,4.40
2019-02-19T04:16:26.998Z,4.17
2019-02-19T04:17:03.101Z,4.40
2019-02-19T04:17:39.144Z,4.20
2019-02-19T04:18:15.287Z,5.20
2019-02-19T04:18:51.522Z,4.53
2019-02-19T04:19:27.607Z,3.90
2019-02-19T04:20:03.759Z,4.17
2019-02-19T04:20:40.247Z,4.43
2019-02-19T04:21:16.246Z,4.40
2019-02-19T04:21:52.226Z,4.90
2019-02-19T04:22:28.235Z,4.10
2019-02-19T04:23:04.407Z,5.47
2019-02-19T04:23:40.469Z,5.37
2019-02-19T04:24:16.454Z,4.83
2019-02-19T04:24:52.761Z,5.07
2019-02-19T04:25:28.943Z,3.57
2019-02-19T04:26:05.161Z,4.80
2019-02-19T04:26:41.174Z,4.70
2019-02-19T04:27:17.323Z,3.60
2019-02-19T04:27:53.462Z,5.30
2019-02-19T04:28:29.737Z,4.00
2019-02-19T04:29:05.957Z,4.03
2019-02-19T04:29:42.116Z,4.70
2019-02-19T04:30:18.215Z,4.40
2019-02-19T04:30:54.341Z,4.30
2019-02-19T04:31:31.849Z,4.30
2019-02-19T04:32:08.024Z,4.83
2019-02-19T04:32:44.176Z,4.60
2019-02-19T04:33:20.428Z,4.07
2019-02-19T04:33:56.449Z,3.90
2019-02-19T04:34:32.478Z,4.53
2019-02-19T04:35:08.781Z,4.17
2019-02-19T04:35:44.970Z,4.77
2019-02-19T04:36:21.017Z,4.60
2019-02-19T04:36:57.134Z,5.50
2019-02-19T04:37:33.289Z,4.30
2019-02-19T04:38:09.413Z,3.77
2019-02-19T04:38:45.601Z,3.73
2019-02-19T04:39:21.788Z,4.47
2019-02-19T04:39:57.936Z,4.53
2019-02-19T04:40:34.006Z,4.00
2019-02-19T04:41:10.127Z,4.93
2019-02-19T04:41:46.151Z,4.63
2019-02-19T04:42:22.473Z,4.93
2019-02-19T04:42:58.624Z,3.40
2019-02-19T04:43:34.807Z,5.80
2019-02-19T04:44:10.969Z,4.57
2019-02-19T04:44:47.259Z,5.33
2019-02-19T04:45:23.332Z,3.87
2019-02-19T04:45:59.634Z,4.83
2019-02-19T04:46:35.851Z,5.00
2019-02-19T04:47:12.093Z,4.33
2019-02-19T04:47:48.264Z,4.67
2019-02-19T04:48:24.490Z,5.10
2019-02-19T04:49:00.636Z,4.90
2019-02-19T04:49:36.664Z,4.57
2019-02-19T04:50:12.772Z,5.03
2019-02-19T04:50:49.087Z,4.67
2019-02-19T04:51:25.254Z,4.40
2019-02-19T04:52:01.467Z,4.80
2019-02-19T04:52:37.544Z,4.40
2019-02-19T04:53:13.596Z,4.27
2019-02-19T04:53:49.708Z,5.13
2019-02-19T04:54:25.933Z,4.80
2019-02-19T04:55:02.290Z,5.60
2019-02-19T04:55:38.496Z,4.83
2019-02-19T04:56:14.726Z,4.30
2019-02-19T04:56:50.746Z,5.27
2019-02-19T04:57:26.873Z,4.30
2019-02-19T04:58:03.009Z,4.60
2019-02-19T04:58:38.998Z,5.03
2019-02-19T04:59:15.019Z,5.10
2019-02-19T04:59:51.202Z,4.23
2019-02-19T05:00:27.399Z,4.70
2019-02-19T05:01:03.392Z,4.73
2019-02-19T05:01:39.538Z,4.90
2019-02-19T05:02:15.562Z,4.13
2019-02-19T05:02:51.701Z,5.20
2019-02-19T05:03:27.731Z,5.30
2019-02-19T05:04:03.823Z,4.70
2019-02-19T05:04:40.101Z,4.57
2019-02-19T05:05:16.236Z,5.23
2019-02-19T05:05:52.278Z,4.70
2019-02-19T05:06:28.463Z,4.50
2019-02-19T05:07:04.499Z,4.77
2019-02-19T05:07:40.641Z,4.63
2019-02-19T05:08:16.947Z,4.63
2019-02-19T05:08:53.116Z,4.30
2019-02-19T05:09:29.816Z,5.70
2019-02-19T05:10:05.948Z,4.87
2019-02-19T05:10:42.173Z,4.67
2019-02-19T05:11:18.429Z,4.70
2019-02-19T05:11:55.555Z,4.50
2019-02-19T05:12:31.778Z,5.10
2019-02-19T05:13:07.854Z,5.27
2019-02-19T05:13:43.881Z,5.20
2019-02-19T05:14:19.947Z,5.37
2019-02-19T05:14:56.086Z,4.07
2019-02-19T05:15:32.220Z,5.30
2019-02-19T05:16:08.522Z,5.23
2019-02-19T05:16:44.868Z,5.10
2019-02-19T05:17:20.984Z,4.63
2019-02-19T05:17:57.133Z,4.00
2019-02-19T05:18:33.330Z,5.10
2019-02-19T05:19:09.565Z,4.70
2019-02-19T05:19:45.530Z,4.60
2019-02-19T05:20:21.522Z,4.93
2019-02-19T05:20:57.748Z,5.10
2019-02-19T05:21:33.851Z,3.77
2019-02-19T05:22:10.051Z,4.33
2019-02-19T05:22:48.787Z,4.90
2019-02-19T05:23:25.314Z,4.50
2019-02-19T05:24:01.532Z,4.40
2019-02-19T05:24:37.645Z,4.73
2019-02-19T05:25:13.794Z,5.00
2019-02-19T05:25:49.951Z,4.40
2019-02-19T05:26:26.109Z,5.07
2019-02-19T05:27:02.342Z,5.27
2019-02-19T05:27:38.425Z,4.90
2019-02-19T05:28:14.582Z,4.40
2019-02-19T05:28:50.745Z,5.10
2019-02-19T05:29:27.052Z,5.00
2019-02-19T05:30:03.248Z,5.23
2019-02-19T05:30:39.378Z,5.33
2019-02-19T05:31:15.553Z,3.93
2019-02-19T05:31:51.574Z,4.70
2019-02-19T05:32:27.555Z,4.33
2019-02-19T05:33:03.695Z,5.53
2019-02-19T05:33:39.890Z,5.70
2019-02-19T05:34:16.110Z,4.30
2019-02-19T05:34:52.182Z,5.00
2019-02-19T05:35:28.357Z,4.80
2019-02-19T05:36:04.411Z,4.33
2019-02-19T05:36:40.570Z,4.33
2019-02-19T05:37:16.765Z,4.23
2019-02-19T05:37:53.027Z,4.00
2019-02-19T05:38:29.175Z,4.93
2019-02-19T05:39:05.860Z,4.13
2019-02-19T05:39:42.104Z,4.80
2019-02-19T05:40:18.208Z,5.13
2019-02-19T05:40:54.372Z,3.83
2019-02-19T05:41:30.584Z,4.03
2019-02-19T05:42:06.672Z,5.80
2019-02-19T05:42:42.841Z,5.37
2019-02-19T05:43:19.079Z,4.43
2019-02-19T05:43:55.247Z,5.93
2019-02-19T05:44:31.303Z,4.23
2019-02-19T05:45:07.634Z,4.50
2019-02-19T05:45:43.907Z,4.97
2019-02-19T05:46:20.336Z,3.60
2019-02-19T05:46:56.434Z,4.50
2019-02-19T05:47:32.724Z,4.83
2019-02-19T05:48:08.900Z,5.73
2019-02-19T05:48:45.166Z,4.13
2019-02-19T05:49:21.327Z,5.97
2019-02-19T05:49:57.370Z,5.90
2019-02-19T05:50:33.658Z,4.67
2019-02-19T05:51:09.895Z,4.80
2019-02-19T05:51:46.198Z,4.83
2019-02-19T05:52:22.864Z,4.63
2019-02-19T05:52:59.120Z,4.57
2019-02-19T05:53:35.196Z,5.20
2019-02-19T05:54:11.313Z,4.40
2019-02-19T05:54:47.672Z,4.97
2019-02-19T05:55:23.890Z,5.00
2019-02-19T05:55:59.927Z,4.53
2019-02-19T05:56:36.150Z,4.90
2019-02-19T05:57:12.468Z,4.50
2019-02-19T05:57:48.780Z,4.37
2019-02-19T05:58:24.844Z,4.00
2019-02-19T05:59:04.032Z,4.60
2019-02-19T05:59:40.323Z,5.03
2019-02-19T06:00:16.557Z,4.87
2019-02-19T06:00:52.740Z,4.93
2019-02-19T06:01:28.861Z,5.13
2019-02-19T06:02:05.147Z,4.90
2019-02-19T06:02:41.375Z,4.47
2019-02-19T06:03:17.531Z,5.67
2019-02-19T06:03:53.676Z,4.63
2019-02-19T06:04:29.926Z,4.60
2019-02-19T06:05:06.407Z,5.70
2019-02-19T06:05:42.651Z,6.17
2019-02-19T06:06:18.900Z,5.20
2019-02-19T06:06:55.011Z,4.80
2019-02-19T06:07:31.188Z,5.13
2019-02-19T06:08:07.449Z,5.23
2019-02-19T06:08:43.711Z,5.33
2019-02-19T06:09:19.805Z,4.93
2019-02-19T06:09:55.849Z,5.23
2019-02-19T06:10:31.952Z,6.20
2019-02-19T06:11:08.058Z,6.67
2019-02-19T06:11:44.049Z,5.50
2019-02-19T06:12:20.161Z,4.87
2019-02-19T06:12:56.350Z,5.70
2019-02-19T06:13:32.483Z,6.60
2019-02-19T06:14:08.751Z,4.80
2019-02-19T06:14:44.798Z,5.23
2019-02-19T06:15:20.888Z,6.03
2019-02-19T06:15:56.901Z,4.80
2019-02-19T06:16:32.906Z,4.83
2019-02-19T06:17:09.023Z,4.57
2019-02-19T06:17:45.074Z,5.33
2019-02-19T06:18:21.311Z,5.20
2019-02-19T06:18:57.424Z,4.87
2019-02-19T06:19:33.580Z,5.50
2019-02-19T06:20:10.018Z,5.27
2019-02-19T06:20:46.144Z,5.00
2019-02-19T06:21:22.333Z,4.73
2019-02-19T06:21:58.496Z,5.60
2019-02-19T06:22:34.745Z,4.83
2019-02-19T06:23:10.761Z,4.80
2019-02-19T06:23:46.942Z,6.00
2019-02-19T06:24:23.206Z,5.17
2019-02-19T06:24:59.546Z,4.70
2019-02-19T06:25:35.651Z,5.80
2019-02-19T06:26:11.752Z,4.73
2019-02-19T06:26:47.920Z,5.33
2019-02-19T06:27:24.003Z,6.20
2019-02-19T06:28:00.213Z,4.83
2019-02-19T06:28:36.397Z,5.67
2019-02-19T06:29:12.484Z,4.93
2019-02-19T06:29:48.422Z,6.10
2019-02-19T06:30:24.481Z,6.00
2019-02-19T06:31:00.549Z,5.20
2019-02-19T06:31:36.813Z,4.90
2019-02-19T06:32:12.992Z,6.07
2019-02-19T06:32:58.283Z,6.10
2019-02-19T06:33:34.582Z,5.90
2019-02-19T06:34:11.292Z,5.30
2019-02-19T06:34:47.779Z,5.73
2019-02-19T06:35:24.261Z,5.73
2019-02-19T06:36:00.668Z,5.50
2019-02-19T06:36:36.888Z,5.40
2019-02-19T06:37:13.168Z,5.13
2019-02-19T06:37:49.369Z,4.97
2019-02-19T06:38:25.517Z,5.37
2019-02-19T06:39:01.760Z,4.60
2019-02-19T06:39:37.809Z,5.00
2019-02-19T06:40:27.770Z,5.87
2019-02-19T06:41:03.839Z,4.47
2019-02-19T06:41:39.935Z,5.40
2019-02-19T06:42:15.923Z,5.93
2019-02-19T06:42:52.049Z,5.50
2019-02-19T06:43:28.227Z,5.00
2019-02-19T06:44:04.522Z,5.30
2019-02-19T06:44:40.862Z,5.50
2019-02-19T06:45:16.825Z,5.93
2019-02-19T06:45:53.014Z,4.87
2019-02-19T06:46:29.208Z,4.90
2019-02-19T06:47:07.074Z,5.27
2019-02-19T06:47:43.149Z,6.17
2019-02-19T06:48:19.410Z,5.90
2019-02-19T06:48:55.373Z,5.80
2019-02-19T06:49:31.352Z,5.60
2019-02-19T06:50:07.920Z,4.97
2019-02-19T06:50:44.052Z,5.90
2019-02-19T06:51:20.321Z,4.73
2019-02-19T06:51:56.348Z,4.87
2019-02-19T06:52:32.408Z,4.73
2019-02-19T06:53:08.639Z,5.47
2019-02-19T06:53:44.681Z,5.57
2019-02-19T06:54:20.696Z,4.50
2019-02-19T06:55:55.858Z,5.90
2019-02-19T06:58:02.426Z,5.90
2019-02-19T06:58:58.548Z,5.13
2019-02-19T06:59:56.760Z,5.63
2019-02-19T07:03:56.498Z,5.30
2019-02-19T07:06:30.871Z,4.70
2019-02-19T07:07:48.459Z,5.00
2019-02-19T07:12:44.740Z,3.93
2019-02-19T07:15:42.751Z,3.77
2019-02-19T07:16:47.103Z,4.57
2019-02-19T07:17:25.728Z,3.60
2019-02-19T07:20:16.601Z,4.23
2019-02-19T07:20:54.311Z,4.77
2019-02-19T07:22:05.710Z,3.43
2019-02-19T07:23:05.731Z,4.30
2019-02-19T07:24:30.840Z,4.60
2019-02-19T07:25:08.130Z,4.77
2019-02-19T07:26:08.812Z,4.83
2019-02-19T07:26:49.508Z,5.03
2019-02-19T07:27:50.515Z,4.60
2019-02-19T07:29:05.307Z,4.53
2019-02-19T07:30:02.806Z,5.17
2019-02-19T07:30:45.139Z,5.00
2019-02-19T07:31:33.463Z,5.57
2019-02-19T07:34:21.847Z,5.70
2019-02-19T07:35:25.212Z,4.53
2019-02-19T07:36:16.373Z,6.07
2019-02-19T07:37:08.854Z,4.50
2019-02-19T07:38:11.004Z,5.97
2019-02-19T07:39:12.505Z,5.30
2019-02-19T07:40:39.379Z,5.47
2019-02-19T07:41:48.383Z,6.57
2019-02-19T07:42:56.570Z,5.53
2019-02-19T07:43:37.798Z,5.27
2019-02-19T07:44:20.884Z,5.60
2019-02-19T07:45:23.901Z,5.90
2019-02-19T07:46:22.890Z,5.60
2019-02-19T07:47:04.688Z,6.87
2019-02-19T07:47:53.360Z,7.20
2019-02-19T07:48:34.072Z,5.13
2019-02-19T07:50:40.446Z,6.20
2019-02-19T07:51:30.201Z,5.60
2019-02-19T07:52:08.161Z,6.43
2019-02-19T07:53:19.532Z,6.37
2019-02-19T07:54:20.684Z,6.10
2019-02-19T07:56:19.559Z,5.37
2019-02-19T07:57:17.052Z,4.30
2019-02-19T07:57:58.526Z,6.37
2019-02-19T07:58:40.324Z,5.70
2019-02-19T07:59:24.250Z,5.10
2019-02-19T08:00:10.051Z,5.73
2019-02-19T08:00:53.639Z,5.90
2019-02-19T08:01:31.431Z,5.30
2019-02-19T08:02:28.840Z,4.70
2019-02-19T08:05:07.609Z,5.30
2019-02-19T08:06:03.277Z,5.00
2019-02-19T08:07:02.015Z,6.37
2019-02-19T08:07:52.749Z,4.80
2019-02-19T08:09:08.148Z,5.60
2019-02-19T08:09:49.689Z,5.10
2019-02-19T08:10:26.780Z,5.40
2019-02-19T08:11:03.582Z,4.90
2019-02-19T08:12:59.750Z,5.40
2019-02-19T08:14:04.215Z,4.83
2019-02-19T08:15:22.135Z,5.07
2019-02-19T08:16:31.640Z,4.40
2019-02-19T08:17:21.070Z,6.43
2019-02-19T08:18:07.459Z,6.10
2019-02-19T08:19:38.907Z,6.90
2019-02-19T08:20:17.501Z,6.90
2019-02-19T08:21:15.012Z,6.07
2019-02-19T08:22:05.525Z,6.20
2019-02-19T08:25:19.170Z,7.00
2019-02-19T08:25:59.434Z,7.70
2019-02-19T08:27:27.691Z,7.23
2019-02-19T08:28:44.083Z,6.37
2019-02-19T08:29:49.393Z,6.13
2019-02-19T08:31:14.868Z,5.77
2019-02-19T08:31:55.076Z,6.20
2019-02-19T08:32:51.548Z,6.60
2019-02-19T08:34:14.326Z,5.70
2019-02-19T08:35:13.272Z,6.57
2019-02-19T08:37:56.158Z,6.20
2019-02-19T08:38:34.010Z,6.50
2019-02-19T08:40:38.559Z,6.73
2019-02-19T08:41:38.551Z,6.70
2019-02-19T08:42:42.120Z,6.93
2019-02-19T08:44:13.182Z,6.37
2019-02-19T08:45:09.368Z,7.80
2019-02-19T08:46:16.205Z,6.00
2019-02-19T08:47:31.092Z,6.10
2019-02-19T08:48:29.293Z,6.60
2019-02-19T08:49:14.322Z,7.43
2019-02-19T08:49:55.041Z,6.70
2019-02-19T08:51:14.253Z,6.73
2019-02-19T08:52:03.292Z,6.10
2019-02-19T08:53:48.371Z,6.70
2019-02-19T08:54:57.939Z,6.60
2019-02-19T08:57:22.341Z,6.80
2019-02-19T08:58:09.877Z,8.20
2019-02-19T08:58:58.512Z,7.17
2019-02-19T09:03:31.251Z,5.83
2019-02-19T09:04:49.841Z,7.57
2019-02-19T09:05:42.497Z,6.07
2019-02-19T09:07:46.851Z,4.87
2019-02-19T09:11:21.788Z,4.80
2019-02-19T09:12:27.778Z,4.33
2019-02-19T09:13:22.993Z,4.10
2019-02-19T09:14:55.134Z,5.63
2019-02-19T09:16:00.332Z,4.90